createdAt,value
2022-10-18T00:00:52.272Z,3.53
2022-10-18T00:03:40.244Z,3.50
2022-10-18T00:06:09.289Z,3.46
2022-10-18T00:08:38.491Z,3.40
2022-10-18T00:11:06.893Z,3.42
2022-10-18T00:13:34.451Z,3.32
2022-10-18T00:16:03.916Z,3.34
2022-10-18T00:18:31.505Z,3.28
2022-10-18T00:21:13.250Z,3.27
2022-10-18T00:23:40.847Z,3.24
2022-10-18T00:26:08.828Z,3.23
2022-10-18T00:28:36.908Z,3.19
2022-10-18T00:31:17.361Z,3.19
2022-10-18T00:33:46.136Z,3.17
2022-10-18T00:36:14.738Z,3.16
2022-10-18T00:38:42.796Z,3.16
2022-10-18T00:41:13.362Z,3.13
2022-10-18T00:44:28.096Z,3.08
2022-10-18T00:47:06.930Z,3.04
2022-10-18T00:49:47.475Z,3.02
2022-10-18T00:52:36.463Z,3.03
2022-10-18T00:55:06.030Z,3.04
2022-10-18T00:57:33.890Z,3.03
2022-10-18T01:00:01.421Z,3.03
2022-10-18T01:02:29.451Z,3.05
2022-10-18T01:04:57.227Z,3.02
2022-10-18T01:07:56.529Z,2.96
2022-10-18T01:10:41.926Z,2.99
2022-10-18T01:13:12.036Z,3.01
2022-10-18T01:15:59.920Z,3.00
2022-10-18T01:18:59.340Z,3.01
2022-10-18T01:22:03.085Z,2.94
2022-10-18T01:25:19.150Z,2.95
2022-10-18T01:27:56.207Z,2.93
2022-10-18T01:30:23.579Z,2.90
2022-10-18T01:33:00.868Z,2.85
2022-10-18T01:35:37.573Z,2.79
2022-10-18T01:38:07.838Z,2.75
2022-10-18T01:40:36.239Z,2.69
2022-10-18T01:43:04.708Z,2.65
2022-10-18T01:45:33.102Z,2.64
2022-10-18T01:48:02.094Z,2.63
2022-10-18T01:50:34.797Z,2.58
2022-10-18T01:53:02.871Z,2.59
2022-10-18T01:55:56.967Z,2.58
2022-10-18T01:58:46.813Z,2.58
2022-10-18T02:01:42.575Z,2.62
2022-10-18T02:04:28.893Z,2.67
2022-10-18T02:07:04.045Z,2.63
2022-10-18T02:09:43.653Z,2.63
2022-10-18T02:12:15.040Z,2.70
2022-10-18T02:14:45.190Z,2.69
2022-10-18T02:17:13.152Z,2.68
2022-10-18T02:19:50.913Z,2.67
2022-10-18T02:22:19.727Z,2.60
2022-10-18T02:24:53.759Z,2.58
2022-10-18T02:27:24.720Z,2.57
2022-10-18T02:29:52.906Z,2.54
2022-10-18T02:32:41.256Z,2.53
2022-10-18T02:35:16.705Z,2.53
2022-10-18T02:37:47.569Z,2.47
2022-10-18T02:40:15.557Z,2.43
2022-10-18T02:42:53.909Z,2.41
2022-10-18T02:45:23.227Z,2.42
2022-10-18T02:47:50.323Z,2.41
2022-10-18T02:50:18.444Z,2.41
2022-10-18T02:52:45.476Z,2.38
2022-10-18T02:55:12.853Z,2.41
2022-10-18T02:57:39.953Z,2.37
2022-10-18T03:00:08.048Z,2.36
2022-10-18T03:02:35.222Z,2.37
2022-10-18T03:05:02.681Z,2.33
2022-10-18T03:12:55.006Z,2.20
2022-10-18T03:15:24.655Z,2.14
2022-10-18T03:17:53.904Z,2.18
2022-10-18T03:20:24.221Z,2.16
2022-10-18T03:22:51.430Z,2.13
2022-10-18T03:25:20.897Z,2.14
2022-10-18T03:27:47.866Z,2.13
2022-10-18T03:30:19.767Z,2.11
2022-10-18T03:32:49.168Z,2.11
2022-10-18T03:35:16.594Z,2.09
2022-10-18T03:37:44.611Z,2.05
2022-10-18T03:40:13.070Z,2.07
2022-10-18T03:42:40.354Z,2.06
2022-10-18T03:45:09.509Z,2.02
2022-10-18T03:47:37.738Z,2.01
2022-10-18T03:50:05.370Z,1.94
2022-10-18T03:52:32.808Z,1.93
2022-10-18T03:55:00.244Z,1.92
2022-10-18T03:57:27.228Z,1.93
2022-10-18T03:59:54.450Z,1.97
2022-10-18T04:02:21.614Z,1.97
2022-10-18T04:04:50.331Z,2.02
2022-10-18T04:07:17.319Z,2.03
2022-10-18T04:09:44.624Z,2.04
2022-10-18T04:12:11.640Z,2.05
2022-10-18T04:14:38.881Z,2.08
2022-10-18T04:17:05.923Z,2.12
2022-10-18T04:19:33.190Z,2.11
2022-10-18T04:22:00.264Z,2.12
2022-10-18T04:24:27.509Z,2.11
2022-10-18T04:26:54.581Z,2.06
2022-10-18T04:29:26.775Z,2.03
2022-10-18T04:31:53.755Z,2.06
2022-10-18T04:34:21.197Z,2.02
2022-10-18T04:36:50.422Z,1.98
2022-10-18T04:39:23.405Z,2.03
2022-10-18T04:41:50.388Z,2.03
2022-10-18T04:44:17.703Z,2.08
2022-10-18T04:46:44.841Z,2.10
2022-10-18T04:49:12.399Z,2.18
2022-10-18T04:51:42.071Z,2.25
2022-10-18T04:54:12.251Z,2.30
2022-10-18T04:56:42.316Z,2.31
2022-10-18T04:59:09.723Z,2.27
2022-10-18T05:01:38.002Z,2.30
2022-10-18T05:04:06.863Z,2.28
2022-10-18T05:06:38.911Z,2.30
2022-10-18T05:09:06.401Z,2.28
2022-10-18T05:11:33.481Z,2.19
2022-10-18T05:14:00.745Z,2.20
2022-10-18T05:16:29.527Z,2.19
2022-10-18T05:19:02.734Z,2.17
2022-10-18T05:21:30.051Z,2.25
2022-10-18T05:23:57.656Z,2.33
2022-10-18T05:26:26.031Z,2.38
2022-10-18T05:28:53.914Z,2.47
2022-10-18T05:31:21.929Z,2.54
2022-10-18T05:33:49.343Z,2.61
2022-10-18T05:36:16.665Z,2.73
2022-10-18T05:38:45.663Z,2.78
2022-10-18T05:41:13.228Z,2.90
2022-10-18T05:43:41.458Z,2.98
2022-10-18T05:46:13.913Z,3.00
2022-10-18T05:48:49.815Z,3.10
2022-10-18T05:51:17.596Z,3.26
2022-10-18T05:53:45.611Z,3.30
2022-10-18T05:56:14.308Z,3.46
2022-10-18T05:58:43.538Z,3.55
2022-10-18T06:01:10.708Z,3.63
2022-10-18T06:03:38.273Z,3.73
2022-10-18T06:06:08.111Z,3.85
2022-10-18T06:08:36.767Z,3.91
2022-10-18T06:11:08.528Z,3.98
2022-10-18T06:13:48.149Z,4.14
2022-10-18T06:16:17.407Z,4.22
2022-10-18T06:18:56.986Z,4.32
2022-10-18T06:21:25.239Z,4.42
2022-10-18T06:24:07.901Z,4.53
2022-10-18T06:26:51.248Z,4.73
2022-10-18T06:29:33.737Z,4.87
2022-10-18T06:32:02.619Z,5.02
2022-10-18T06:34:29.664Z,5.17
2022-10-18T06:36:58.946Z,5.30
2022-10-18T06:39:28.655Z,5.38
2022-10-18T06:41:58.243Z,5.43
2022-10-18T06:44:25.783Z,5.51
2022-10-18T06:46:53.978Z,5.55
2022-10-18T06:49:23.577Z,5.71
2022-10-18T06:52:10.185Z,5.79
2022-10-18T06:54:38.587Z,5.89
2022-10-18T06:57:07.230Z,5.99
2022-10-18T06:59:35.019Z,6.09
2022-10-18T07:02:03.022Z,6.25
2022-10-18T07:04:33.092Z,6.40
2022-10-18T07:07:00.789Z,6.52
2022-10-18T07:09:28.501Z,6.64
2022-10-18T07:11:56.694Z,6.77
2022-10-18T07:14:37.363Z,6.92
2022-10-18T07:17:24.371Z,7.02
2022-10-18T07:22:40.247Z,7.31
2022-10-18T07:25:11.494Z,7.38
2022-10-18T07:27:42.941Z,7.50
2022-10-18T07:30:11.471Z,7.68
2022-10-18T07:32:38.533Z,7.80
2022-10-18T07:35:22.776Z,8.01
2022-10-18T07:37:53.740Z,8.25
2022-10-18T07:40:21.282Z,8.48
2022-10-18T07:42:48.987Z,8.67
2022-10-18T07:45:16.015Z,8.91
2022-10-18T07:47:43.243Z,9.15
2022-10-18T07:50:10.271Z,9.37
2022-10-18T07:52:38.868Z,9.66
2022-10-18T07:55:08.171Z,9.92
2022-10-18T07:57:36.559Z,10.04
2022-10-18T08:00:09.329Z,10.29
2022-10-18T08:05:18.745Z,10.87
2022-10-18T08:07:50.499Z,11.27
2022-10-18T08:13:18.023Z,12.08
2022-10-18T08:16:08.240Z,12.42
2022-10-18T08:18:43.133Z,12.76
2022-10-18T08:21:13.497Z,13.02
2022-10-18T08:26:24.416Z,13.54
2022-10-18T08:29:10.432Z,13.79
2022-10-18T08:31:39.536Z,14.02
2022-10-18T08:34:06.541Z,14.19
2022-10-18T08:36:34.035Z,14.35
2022-10-18T08:39:03.030Z,14.54
2022-10-18T08:42:13.179Z,14.97
2022-10-18T08:45:00.167Z,17.23
2022-10-18T08:47:42.658Z,19.54
2022-10-18T08:50:23.958Z,21.82
2022-10-18T08:52:51.002Z,23.47
2022-10-18T08:55:36.647Z,24.51
2022-10-18T08:58:16.814Z,24.81
2022-10-18T09:00:53.184Z,25.42
2022-10-18T09:03:38.586Z,26.21
2022-10-18T09:06:31.602Z,27.27
2022-10-18T09:09:30.045Z,27.44
2022-10-18T09:12:29.374Z,28.24
2022-10-18T09:15:16.303Z,28.52
2022-10-18T09:18:08.552Z,29.07
2022-10-18T09:20:55.867Z,29.89
2022-10-18T09:23:58.087Z,30.88
2022-10-18T09:26:26.333Z,30.92
2022-10-18T09:28:59.566Z,30.33
2022-10-18T09:31:33.425Z,30.06
2022-10-18T09:34:12.630Z,30.47
2022-10-18T09:36:40.142Z,30.76
2022-10-18T09:39:18.171Z,31.38
2022-10-18T09:44:45.025Z,30.88
2022-10-18T09:47:48.005Z,29.23
2022-10-18T09:50:37.961Z,25.72
2022-10-18T09:53:35.420Z,23.90
2022-10-18T09:56:09.579Z,23.18
2022-10-18T09:58:46.566Z,22.63
2022-10-18T10:01:18.479Z,21.91
2022-10-18T10:03:45.779Z,21.26
2022-10-18T10:06:12.704Z,20.88
2022-10-18T10:08:47.650Z,20.54
2022-10-18T10:11:45.493Z,20.39
2022-10-18T10:14:14.388Z,20.29
2022-10-18T10:17:11.619Z,20.18
2022-10-18T10:20:12.890Z,20.11
2022-10-18T10:22:41.691Z,20.04
2022-10-18T10:25:26.086Z,19.84
2022-10-18T10:27:53.426Z,19.68
2022-10-18T10:30:29.400Z,19.55
2022-10-18T10:32:58.251Z,19.46
2022-10-18T10:35:52.475Z,19.46
2022-10-18T10:38:25.749Z,19.50
2022-10-18T10:40:54.084Z,19.37
2022-10-18T10:43:37.571Z,19.34
2022-10-18T10:46:36.603Z,19.43
2022-10-18T10:49:39.154Z,19.32
2022-10-18T10:52:08.916Z,19.35
2022-10-18T10:54:48.993Z,19.27
2022-10-18T10:57:27.146Z,19.22
2022-10-18T10:59:57.150Z,19.24
2022-10-18T11:03:28.083Z,19.30
2022-10-18T11:05:58.038Z,19.28
2022-10-18T11:11:23.140Z,19.31
2022-10-18T11:14:25.191Z,19.33
2022-10-18T11:17:12.105Z,19.32
2022-10-18T11:19:51.301Z,19.41
2022-10-18T11:22:23.755Z,19.94
2022-10-18T11:24:51.005Z,20.08
2022-10-18T11:27:29.849Z,20.18
2022-10-18T11:30:20.154Z,20.00
2022-10-18T11:33:15.287Z,19.79
2022-10-18T11:36:14.253Z,19.68
2022-10-18T11:38:49.128Z,19.65
2022-10-18T11:41:34.186Z,19.83
2022-10-18T11:44:04.562Z,19.79
2022-10-18T11:46:31.799Z,19.71
2022-10-18T11:49:13.927Z,19.68
2022-10-18T11:52:07.894Z,19.66
2022-10-18T11:55:11.574Z,19.63
2022-10-18T11:57:42.219Z,19.64
2022-10-18T12:00:18.833Z,19.76
2022-10-18T12:02:52.213Z,19.78
2022-10-18T12:05:24.212Z,19.81
2022-10-18T12:08:23.866Z,19.77
2022-10-18T12:11:06.063Z,19.67
2022-10-18T12:13:43.418Z,19.69
2022-10-18T12:16:50.045Z,19.62
2022-10-18T12:19:27.007Z,19.65
2022-10-18T12:22:13.979Z,19.57
2022-10-18T12:24:44.870Z,19.58
2022-10-18T12:27:19.979Z,19.59
2022-10-18T12:29:53.854Z,19.49
2022-10-18T12:32:27.229Z,19.56
2022-10-18T12:35:16.749Z,19.58
2022-10-18T12:38:12.445Z,19.58
2022-10-18T12:40:53.443Z,19.60
2022-10-18T12:43:25.635Z,19.56
2022-10-18T12:46:01.700Z,19.51
2022-10-18T12:48:34.643Z,19.55
2022-10-18T12:51:15.769Z,19.55
2022-10-18T12:54:15.772Z,19.55
2022-10-18T12:56:52.955Z,19.49
2022-10-18T12:59:20.352Z,19.52
2022-10-18T13:01:50.825Z,19.49
2022-10-18T13:04:27.663Z,19.45
2022-10-18T13:07:01.382Z,19.41
2022-10-18T13:09:36.687Z,19.35
2022-10-18T13:12:13.451Z,19.41
2022-10-18T13:14:48.303Z,19.40
2022-10-18T13:17:47.918Z,19.42
2022-10-18T13:21:15.303Z,19.41
2022-10-18T13:24:17.679Z,19.40
2022-10-18T13:27:04.196Z,19.39
2022-10-18T13:30:10.811Z,19.39
2022-10-18T13:33:17.138Z,19.35
2022-10-18T13:36:00.245Z,19.37
2022-10-18T13:38:56.049Z,19.37
2022-10-18T13:41:49.967Z,19.34
2022-10-18T13:44:38.497Z,19.27
2022-10-18T13:47:37.985Z,19.29
2022-10-18T13:50:21.320Z,19.29
2022-10-18T13:53:26.232Z,19.27
2022-10-18T13:56:14.638Z,19.32
2022-10-18T13:59:14.061Z,19.23
2022-10-18T14:02:15.132Z,19.22
2022-10-18T14:05:40.290Z,19.19
2022-10-18T14:08:15.909Z,19.09
2022-10-18T14:11:06.434Z,19.03
2022-10-18T14:13:52.622Z,18.98
2022-10-18T14:19:43.093Z,18.90
2022-10-18T14:22:24.170Z,18.86
2022-10-18T14:24:58.382Z,18.78
2022-10-18T14:27:33.059Z,18.76
2022-10-18T14:30:17.923Z,18.64
2022-10-18T14:32:51.490Z,18.57
2022-10-18T14:35:35.016Z,18.49
2022-10-18T14:40:46.703Z,18.27
2022-10-18T14:43:17.659Z,18.20
2022-10-18T14:45:48.960Z,18.11
2022-10-18T14:48:22.626Z,17.97
2022-10-18T14:51:01.635Z,17.86
2022-10-18T14:53:39.231Z,17.72
2022-10-18T14:56:07.904Z,17.58
2022-10-18T14:58:38.401Z,17.47
2022-10-18T15:01:06.980Z,17.40
2022-10-18T15:03:35.867Z,17.29
2022-10-18T15:06:05.932Z,17.20
2022-10-18T15:08:37.780Z,17.12
2022-10-18T15:11:10.604Z,17.01
2022-10-18T15:13:57.986Z,16.91
2022-10-18T15:16:30.680Z,16.81
2022-10-18T15:19:16.984Z,16.71
2022-10-18T15:22:32.996Z,16.60
2022-10-18T15:25:05.629Z,16.47
2022-10-18T15:27:36.791Z,16.30
2022-10-18T15:30:11.638Z,16.27
2022-10-18T15:33:16.170Z,16.19
2022-10-18T15:35:44.339Z,16.13
2022-10-18T15:38:27.161Z,16.05
2022-10-18T15:40:54.985Z,15.90
2022-10-18T15:43:28.149Z,15.85
2022-10-18T15:46:05.007Z,15.76
2022-10-18T15:48:41.748Z,15.64
2022-10-18T15:51:19.606Z,15.54
2022-10-18T15:53:49.617Z,15.41
2022-10-18T15:56:30.368Z,15.23
2022-10-18T15:58:59.276Z,15.16
2022-10-18T16:01:35.696Z,15.14
2022-10-18T16:04:10.873Z,15.09
2022-10-18T16:06:38.753Z,15.06
2022-10-18T16:09:07.245Z,15.05
2022-10-18T16:11:34.666Z,14.95
2022-10-18T16:14:01.967Z,14.85
2022-10-18T16:16:29.630Z,14.87
2022-10-18T16:18:57.517Z,14.78
2022-10-18T16:21:45.563Z,14.72
2022-10-18T16:24:12.814Z,14.61
2022-10-18T16:26:40.389Z,14.52
2022-10-18T16:29:17.105Z,14.52
2022-10-18T16:31:57.161Z,14.41
2022-10-18T16:34:26.854Z,14.32
2022-10-18T16:37:02.131Z,14.29
2022-10-18T16:39:32.175Z,14.27
2022-10-18T16:41:59.631Z,14.24
2022-10-18T16:44:26.823Z,14.13
2022-10-18T16:47:11.212Z,14.13
2022-10-18T16:49:39.934Z,14.07
2022-10-18T16:52:07.045Z,14.07
2022-10-18T16:54:40.653Z,13.98
2022-10-18T16:57:08.868Z,14.03
2022-10-18T16:59:37.180Z,13.97
2022-10-18T17:02:10.234Z,13.88
2022-10-18T17:04:37.751Z,13.78
2022-10-18T17:07:05.188Z,13.67
2022-10-18T17:09:35.124Z,13.57
2022-10-18T17:12:02.292Z,13.38
2022-10-18T17:14:33.406Z,13.31
2022-10-18T17:17:00.339Z,13.12
2022-10-18T17:19:30.333Z,13.02
2022-10-18T17:22:02.278Z,12.91
2022-10-18T17:24:30.329Z,12.81
2022-10-18T17:26:58.027Z,12.71
2022-10-18T17:29:25.536Z,12.68
2022-10-18T17:31:52.600Z,12.63
2022-10-18T17:34:22.480Z,12.58
2022-10-18T17:36:57.356Z,12.45
2022-10-18T17:39:27.813Z,12.33
2022-10-18T17:41:55.723Z,12.33
2022-10-18T17:44:24.229Z,12.33
2022-10-18T17:46:51.917Z,12.33
2022-10-18T17:49:19.427Z,12.41
2022-10-18T17:51:47.781Z,12.37
2022-10-18T17:54:15.093Z,12.23
2022-10-18T17:56:43.206Z,12.12
2022-10-18T17:59:11.790Z,11.92
2022-10-18T18:01:42.111Z,11.79
2022-10-18T18:04:22.790Z,11.59
2022-10-18T18:06:54.658Z,11.40
2022-10-18T18:09:50.166Z,11.36
2022-10-18T18:12:17.375Z,11.24
2022-10-18T18:14:47.488Z,11.20
2022-10-18T18:17:15.033Z,11.06
2022-10-18T18:19:42.974Z,10.96
2022-10-18T18:22:36.919Z,10.81
2022-10-18T18:27:50.540Z,10.76
2022-10-18T18:30:22.044Z,10.67
2022-10-18T18:32:49.316Z,10.71
2022-10-18T18:35:19.437Z,10.56
2022-10-18T18:37:54.345Z,10.51
2022-10-18T18:40:23.956Z,10.39
2022-10-18T18:43:07.268Z,10.26
2022-10-18T18:45:39.209Z,10.33
2022-10-18T18:48:08.679Z,10.21
2022-10-18T18:50:37.295Z,10.10
2022-10-18T18:53:05.001Z,10.05
2022-10-18T18:55:34.899Z,9.94
2022-10-18T18:58:04.105Z,9.80
2022-10-18T19:00:31.703Z,9.68
2022-10-18T19:02:59.020Z,9.57
2022-10-18T19:05:28.196Z,9.62
2022-10-18T19:07:55.358Z,9.52
2022-10-18T19:10:22.834Z,9.47
2022-10-18T19:12:51.207Z,9.47
2022-10-18T19:15:21.695Z,9.50
2022-10-18T19:17:51.513Z,9.51
2022-10-18T19:20:19.183Z,9.37
2022-10-18T19:22:46.267Z,9.42
2022-10-18T19:25:16.533Z,9.48
2022-10-18T19:27:43.715Z,9.48
2022-10-18T19:30:13.237Z,9.48
2022-10-18T19:32:40.916Z,9.35
2022-10-18T19:35:10.761Z,9.30
2022-10-18T19:37:39.448Z,9.29
2022-10-18T19:40:08.925Z,9.29
2022-10-18T19:42:40.917Z,9.24
2022-10-18T19:45:09.100Z,9.29
2022-10-18T19:47:38.469Z,9.30
2022-10-18T19:50:06.482Z,9.28
2022-10-18T19:52:33.718Z,9.27
2022-10-18T19:55:01.716Z,9.22
2022-10-18T19:57:29.870Z,9.25
2022-10-18T19:59:58.434Z,9.32
2022-10-18T20:02:27.730Z,9.31
2022-10-18T20:04:56.364Z,9.39
2022-10-18T20:07:23.893Z,9.41
2022-10-18T20:09:51.141Z,9.41
2022-10-18T20:12:18.181Z,9.36
2022-10-18T20:14:45.560Z,9.43
2022-10-18T20:17:13.736Z,9.42
2022-10-18T20:19:41.804Z,9.48
2022-10-18T20:22:08.741Z,9.49
2022-10-18T20:24:36.002Z,9.48
2022-10-18T20:27:03.616Z,9.53
2022-10-18T20:29:31.724Z,9.53
2022-10-18T20:31:58.881Z,9.59
2022-10-18T20:34:28.534Z,9.56
2022-10-18T20:36:55.919Z,9.62
2022-10-18T20:39:23.706Z,9.63
2022-10-18T20:41:50.960Z,9.62
2022-10-18T20:44:20.890Z,9.60
2022-10-18T20:46:47.913Z,9.58
2022-10-18T20:49:16.609Z,9.54
2022-10-18T20:51:44.053Z,9.50
2022-10-18T20:54:14.073Z,9.49
2022-10-18T20:56:41.131Z,9.41
2022-10-18T20:59:10.151Z,9.31
2022-10-18T21:01:39.225Z,9.30
2022-10-18T21:04:09.313Z,9.21
2022-10-18T21:06:40.458Z,9.15
2022-10-18T21:09:11.688Z,9.12
2022-10-18T21:11:41.533Z,9.00
2022-10-18T21:14:16.218Z,9.05
2022-10-18T21:16:43.908Z,9.02
2022-10-18T21:19:23.615Z,9.04
2022-10-18T21:21:53.897Z,9.09
2022-10-18T21:24:23.240Z,9.15
2022-10-18T21:26:50.627Z,9.21
2022-10-18T21:29:21.927Z,9.26
2022-10-18T21:32:00.977Z,9.21
2022-10-18T21:34:30.909Z,9.21
2022-10-18T21:36:57.898Z,9.12
2022-10-18T21:39:26.645Z,9.07
2022-10-18T21:41:54.031Z,9.04
2022-10-18T21:44:21.747Z,9.06
2022-10-18T21:46:48.967Z,9.07
2022-10-18T21:49:16.696Z,8.99
2022-10-18T21:51:43.828Z,9.00
2022-10-18T21:54:16.181Z,8.96
2022-10-18T21:56:43.556Z,8.97
2022-10-18T21:59:14.296Z,8.93
2022-10-18T22:01:43.683Z,8.92
2022-10-18T22:04:20.614Z,8.90
2022-10-18T22:06:47.757Z,8.90
2022-10-18T22:09:15.080Z,8.86
2022-10-18T22:11:45.945Z,8.78
2022-10-18T22:14:13.210Z,8.80
2022-10-18T22:16:40.174Z,8.76
2022-10-18T22:19:08.124Z,8.76
2022-10-18T22:21:35.605Z,8.76
2022-10-18T22:24:08.218Z,8.71
2022-10-18T22:26:38.246Z,8.65
2022-10-18T22:29:08.638Z,8.66
2022-10-18T22:31:38.778Z,8.63
2022-10-18T22:34:08.956Z,8.62
2022-10-18T22:36:36.069Z,8.56
2022-10-18T22:39:05.559Z,8.55
2022-10-18T22:41:34.173Z,8.52
2022-10-18T22:44:03.661Z,8.44
2022-10-18T22:46:35.395Z,8.46
2022-10-18T22:49:02.604Z,8.36
2022-10-18T22:51:29.599Z,8.32
2022-10-18T22:53:57.110Z,8.26
2022-10-18T22:56:24.815Z,8.25
2022-10-18T22:58:52.948Z,8.15
2022-10-18T23:01:22.672Z,8.06
2022-10-18T23:03:58.221Z,8.04
2022-10-18T23:06:29.083Z,7.99
2022-10-18T23:08:58.784Z,7.96
2022-10-18T23:11:27.806Z,7.94
2022-10-18T23:13:55.340Z,7.93
2022-10-18T23:16:22.757Z,7.94
2022-10-18T23:18:52.487Z,7.94
2022-10-18T23:21:20.183Z,7.97
2022-10-18T23:23:47.573Z,7.95
2022-10-18T23:26:16.734Z,7.94
2022-10-18T23:28:46.364Z,7.92
2022-10-18T23:31:19.398Z,7.92
2022-10-18T23:33:54.281Z,7.94
2022-10-18T23:36:22.067Z,7.93
2022-10-18T23:38:49.676Z,7.93
2022-10-18T23:41:17.313Z,7.94
2022-10-18T23:43:46.126Z,7.93
2022-10-18T23:46:15.634Z,7.93
2022-10-18T23:48:43.685Z,7.91
2022-10-18T23:51:10.961Z,7.97
2022-10-18T23:53:38.766Z,7.94
2022-10-18T23:56:09.078Z,7.84
2022-10-18T23:58:37.414Z,7.71
